Time;durP1;ratioP1;P1;durP2;ratioP2;P2;SDS_P1;SDS_P2;PMS_P1;PMS_P2;Temp;Humidity;BMP_temperature;BMP_pressure;BME280_temperature;BME280_humidity;BME280_pressure;Samples;Min_cycle;Max_cycle;Signal;HPM_P1;HPM_P2
2021/12/24 00:01:17;;;;;;;22.80;16.83;;;10.90;80.90;;;;;;5038007;28;20061;-49
2021/12/24 00:03:44;;;;;;;24.10;16.05;;;10.90;81.00;;;;;;5026720;28;20121;-50
2021/12/24 00:06:12;;;;;;;23.42;16.30;;;11.00;80.90;;;;;;5029419;28;20042;-48
2021/12/24 00:08:40;;;;;;;22.08;15.82;;;10.90;80.90;;;;;;5040385;28;20056;-52
2021/12/24 00:11:07;;;;;;;22.48;16.27;;;11.00;81.00;;;;;;5039400;28;20041;-50
2021/12/24 00:13:39;;;;;;;26.20;15.32;;;11.00;81.00;;;;;;5029284;28;20079;-52
2021/12/24 00:18:47;;;;;;;20.30;14.13;;;11.00;81.00;;;;;;5039653;28;20650;-52
2021/12/24 00:22:12;;;;;;;19.98;13.93;;;11.00;81.00;;;;;;5043982;28;20107;-48
2021/12/24 00:35:32;;;;;;;18.85;15.38;;;11.00;81.20;;;;;;5014852;28;20044;-48
2021/12/24 00:38:03;;;;;;;23.17;15.93;;;11.00;81.30;;;;;;5024186;28;20041;-49
2021/12/24 00:40:46;;;;;;;20.73;15.77;;;11.00;81.20;;;;;;5035207;28;20493;-52
2021/12/24 00:43:14;;;;;;;18.65;14.70;;;11.00;81.30;;;;;;5041917;28;20037;-49
2021/12/24 00:45:43;;;;;;;20.38;16.02;;;11.00;81.20;;;;;;5015678;28;20038;-51
2021/12/24 00:48:13;;;;;;;25.35;16.95;;;11.00;81.20;;;;;;5025798;28;20088;-49
2021/12/24 00:56:16;;;;;;;21.98;16.05;;;11.10;81.20;;;;;;5021294;28;20048;-52
2021/12/24 00:58:44;;;;;;;22.05;14.98;;;11.00;81.30;;;;;;5033043;28;20038;-50
2021/12/24 01:01:13;;;;;;;22.20;16.52;;;11.00;81.20;;;;;;5012928;28;20045;-50
2021/12/24 01:03:42;;;;;;;22.23;16.42;;;11.10;81.30;;;;;;5028537;28;20870;-48
2021/12/24 01:06:09;;;;;;;24.50;16.50;;;11.10;81.30;;;;;;5032857;28;20546;-49
2021/12/24 01:08:37;;;;;;;22.23;15.80;;;11.10;81.30;;;;;;5014275;28;20111;-48
2021/12/24 01:11:09;;;;;;;20.85;16.02;;;11.10;81.30;;;;;;5013004;28;20057;-52
2021/12/24 01:13:36;;;;;;;22.98;15.98;;;11.10;81.40;;;;;;5023073;28;20127;-49
2021/12/24 01:16:32;;;;;;;23.98;16.88;;;11.10;81.30;;;;;;5044234;28;20048;-52
2021/12/24 01:19:05;;;;;;;22.65;16.73;;;11.10;81.40;;;;;;5052662;28;20044;-53
2021/12/24 01:24:32;;;;;;;23.20;15.15;;;11.10;81.50;;;;;;5014867;28;20068;-51
2021/12/24 01:27:15;;;;;;;22.13;16.98;;;11.10;81.40;;;;;;5017168;28;20496;-50
2021/12/24 01:29:54;;;;;;;24.85;17.15;;;11.20;81.50;;;;;;5029453;28;20044;-52
2021/12/24 01:38:10;;;;;;;27.75;17.10;;;11.20;81.50;;;;;;5019173;28;20056;-48
2021/12/24 01:41:03;;;;;;;25.23;16.35;;;11.20;81.50;;;;;;5013975;28;20038;-50
2021/12/24 01:43:29;;;;;;;23.83;16.58;;;11.20;81.50;;;;;;5021170;28;20452;-52
2021/12/24 01:45:58;;;;;;;23.50;16.33;;;11.20;81.50;;;;;;5031723;28;20037;-48
2021/12/24 01:48:25;;;;;;;24.77;17.83;;;11.20;81.50;;;;;;5018326;28;20041;-48
2021/12/24 01:50:55;;;;;;;23.80;17.08;;;11.20;81.50;;;;;;5031697;28;20041;-49
2021/12/24 01:53:33;;;;;;;26.08;17.52;;;11.30;81.60;;;;;;5013393;28;20053;-52
2021/12/24 01:56:00;;;;;;;24.98;18.60;;;11.30;81.50;;;;;;5011667;28;20421;-52
2021/12/24 01:58:27;;;;;;;26.25;18.05;;;11.30;81.50;;;;;;5018078;28;20065;-48
2021/12/24 02:00:56;;;;;;;29.92;17.20;;;11.30;81.50;;;;;;5040375;28;20065;-47
2021/12/24 02:03:23;;;;;;;25.17;17.60;;;11.30;81.50;;;;;;5024591;28;20041;-49
2021/12/24 02:05:50;;;;;;;24.85;17.90;;;11.30;81.40;;;;;;5027180;28;20045;-47
2021/12/24 02:08:18;;;;;;;22.70;16.52;;;11.30;81.40;;;;;;5028083;28;20576;-48
2021/12/24 02:10:48;;;;;;;27.15;17.42;;;11.30;81.30;;;;;;5028552;28;20086;-52
2021/12/24 02:13:16;;;;;;;24.88;17.48;;;11.40;81.40;;;;;;5024368;28;20500;-51
2021/12/24 02:16:07;;;;;;;23.23;16.63;;;11.40;81.30;;;;;;5033775;28;20144;-52
2021/12/24 02:29:38;;;;;;;27.50;18.48;;;11.40;81.10;;;;;;5016310;28;20041;-51
2021/12/24 02:32:07;;;;;;;21.65;16.45;;;11.40;81.00;;;;;;5013170;28;20037;-51
2021/12/24 02:34:34;;;;;;;24.98;16.70;;;11.40;81.00;;;;;;5018070;28;20056;-52
2021/12/24 02:37:01;;;;;;;26.02;17.55;;;11.40;81.00;;;;;;5015112;28;20149;-53
2021/12/24 02:39:28;;;;;;;22.90;16.90;;;11.40;81.00;;;;;;5023741;28;20045;-48
2021/12/24 02:41:57;;;;;;;29.33;17.52;;;11.40;81.00;;;;;;5028733;28;20037;-49
2021/12/24 02:44:24;;;;;;;25.10;17.73;;;11.40;81.00;;;;;;5042691;28;20026;-51
2021/12/24 02:54:57;;;;;;;18.67;15.07;;;11.40;80.80;;;;;;5000045;28;20046;-50
2021/12/24 02:57:31;;;;;;;21.70;16.13;;;11.40;80.70;;;;;;5038626;28;20048;-51
2021/12/24 03:00:00;;;;;;;21.13;15.82;;;11.40;80.70;;;;;;5023959;28;20045;-48
2021/12/24 03:02:28;;;;;;;20.73;14.77;;;11.40;80.70;;;;;;5025007;28;20037;-52
2021/12/24 03:04:57;;;;;;;22.33;15.68;;;11.40;80.70;;;;;;5010059;28;20042;-48
2021/12/24 03:07:24;;;;;;;20.35;15.23;;;11.40;80.80;;;;;;5026937;28;20116;-52
2021/12/24 03:09:51;;;;;;;22.25;16.92;;;11.40;80.80;;;;;;5032169;28;20083;-51
2021/12/24 03:12:19;;;;;;;24.50;15.68;;;11.40;80.80;;;;;;5036898;28;20037;-52
2021/12/24 03:14:46;;;;;;;20.52;14.98;;;11.40;80.80;;;;;;5020498;28;20056;-51
2021/12/24 03:17:17;;;;;;;20.65;15.25;;;11.40;80.80;;;;;;5021922;28;20048;-51
2021/12/24 03:19:44;;;;;;;17.70;14.40;;;11.40;80.90;;;;;;5027673;28;20044;-48
2021/12/24 03:22:27;;;;;;;20.60;14.80;;;11.40;80.90;;;;;;5042188;28;20037;-52
2021/12/24 03:24:55;;;;;;;18.95;14.35;;;11.40;80.90;;;;;;5019525;28;20040;-52
2021/12/24 03:27:22;;;;;;;21.92;14.88;;;11.40;80.90;;;;;;5024087;28;20056;-52
2021/12/24 03:29:51;;;;;;;18.90;15.07;;;11.40;80.90;;;;;;5032342;28;20404;-52
2021/12/24 03:32:22;;;;;;;20.60;14.57;;;11.40;80.90;;;;;;5017497;28;20043;-49
2021/12/24 03:34:48;;;;;;;19.77;14.98;;;11.50;81.00;;;;;;5026244;28;20048;-52
2021/12/24 03:37:16;;;;;;;22.52;16.10;;;11.40;80.90;;;;;;5022993;28;20049;-52
2021/12/24 03:39:43;;;;;;;23.05;16.70;;;11.40;80.90;;;;;;5031859;28;20049;-50
2021/12/24 03:42:11;;;;;;;25.77;16.17;;;11.50;81.00;;;;;;5016064;28;20072;-52
2021/12/24 03:44:45;;;;;;;22.67;14.32;;;11.50;81.00;;;;;;5025338;28;20390;-48
2021/12/24 03:47:15;;;;;;;22.88;14.90;;;11.50;81.00;;;;;;5030086;28;20045;-52
2021/12/24 03:49:58;;;;;;;21.75;14.82;;;11.50;80.90;;;;;;5019616;28;20394;-48
2021/12/24 03:54:57;;;;;;;22.90;15.00;;;11.50;80.80;;;;;;5020225;28;20041;-49
2021/12/24 03:57:39;;;;;;;21.23;15.85;;;11.50;80.80;;;;;;5031281;28;20467;-48
2021/12/24 04:00:32;;;;;;;21.08;15.75;;;11.60;80.80;;;;;;5015475;28;20475;-48
2021/12/24 04:03:31;;;;;;;24.63;16.15;;;11.60;80.70;;;;;;5030287;28;20052;-48
2021/12/24 04:05:57;;;;;;;24.63;15.85;;;11.60;80.50;;;;;;5038442;28;20571;-48
2021/12/24 04:08:43;;;;;;;21.65;14.52;;;11.60;80.50;;;;;;5025865;28;20048;-48
2021/12/24 04:11:29;;;;;;;25.40;16.00;;;11.60;80.50;;;;;;5030941;28;20574;-50
2021/12/24 04:13:55;;;;;;;23.25;16.65;;;11.60;80.40;;;;;;5020178;28;20404;-52
2021/12/24 04:16:22;;;;;;;21.10;15.00;;;11.60;80.50;;;;;;5031255;28;20052;-50
2021/12/24 04:24:51;;;;;;;22.25;13.57;;;11.60;80.40;;;;;;5016546;28;20046;-52
2021/12/24 04:27:30;;;;;;;19.13;15.23;;;11.60;80.40;;;;;;5006800;28;20037;-51
2021/12/24 04:30:07;;;;;;;23.38;15.32;;;11.60;80.40;;;;;;5019123;28;20045;-49
2021/12/24 04:51:52;;;;;;;18.85;13.60;;;11.70;80.10;;;;;;5021669;28;20505;-49
2021/12/24 05:03:02;;;;;;;20.70;14.32;;;11.70;80.10;;;;;;5025378;22;20099;-45
2021/12/24 05:05:55;;;;;;;20.13;13.88;;;11.70;80.10;;;;;;5009474;28;20061;-44
2021/12/24 05:10:45;;;;;;;20.70;14.55;;;11.70;80.10;;;;;;5023397;28;20053;-47
2021/12/24 05:13:16;;;;;;;22.15;14.25;;;11.70;80.00;;;;;;5045219;28;20393;-45
2021/12/24 05:22:11;;;;;;;22.73;13.63;;;11.80;80.00;;;;;;5024946;28;20111;-46
2021/12/24 05:24:40;;;;;;;23.00;14.07;;;11.80;80.00;;;;;;5012899;28;20133;-46
2021/12/24 05:27:07;;;;;;;20.40;14.95;;;11.80;80.00;;;;;;5016717;28;20049;-45
2021/12/24 05:29:34;;;;;;;17.52;13.77;;;11.80;80.10;;;;;;5017882;28;20045;-47
2021/12/24 05:32:02;;;;;;;21.38;14.07;;;11.80;80.10;;;;;;5030915;28;20103;-48
2021/12/24 05:34:31;;;;;;;20.73;12.73;;;11.80;80.10;;;;;;5019634;28;20046;-44
2021/12/24 05:36:58;;;;;;;19.85;14.52;;;11.80;80.10;;;;;;5027452;28;20048;-49
2021/12/24 05:39:26;;;;;;;17.33;12.98;;;11.80;80.00;;;;;;5026619;28;20424;-48
2021/12/24 05:41:53;;;;;;;18.52;13.32;;;11.80;80.00;;;;;;5034354;28;20052;-48
2021/12/24 05:44:22;;;;;;;20.42;14.48;;;11.90;80.00;;;;;;5021143;28;20044;-48
2021/12/24 05:47:01;;;;;;;19.45;13.55;;;11.90;80.00;;;;;;5025297;28;20606;-48
2021/12/24 05:49:37;;;;;;;20.27;12.80;;;11.90;80.00;;;;;;5027507;28;20064;-49
2021/12/24 05:52:30;;;;;;;19.40;13.32;;;11.90;79.90;;;;;;5000681;28;20052;-49
2021/12/24 05:55:17;;;;;;;19.92;13.50;;;11.90;79.80;;;;;;5002038;28;20551;-47
2021/12/24 05:57:46;;;;;;;20.95;13.93;;;11.90;79.70;;;;;;5029047;28;20493;-47
2021/12/24 06:00:14;;;;;;;22.13;14.50;;;11.90;79.70;;;;;;5033885;28;20052;-49
2021/12/24 06:02:45;;;;;;;22.55;13.90;;;11.90;79.70;;;;;;5011855;28;20045;-49
2021/12/24 06:05:12;;;;;;;19.15;13.75;;;11.90;79.70;;;;;;5045996;28;20037;-48
2021/12/24 06:07:39;;;;;;;20.45;13.65;;;11.90;79.70;;;;;;5031001;28;20591;-48
2021/12/24 06:10:06;;;;;;;23.30;13.82;;;11.90;79.70;;;;;;5031485;28;20046;-45
2021/12/24 06:12:34;;;;;;;17.77;13.48;;;11.90;79.60;;;;;;5016263;28;20037;-46
2021/12/24 06:15:04;;;;;;;21.80;13.90;;;11.90;79.60;;;;;;5024137;28;20037;-45
2021/12/24 06:17:32;;;;;;;20.48;13.75;;;11.90;79.60;;;;;;5051405;28;20048;-49
2021/12/24 06:19:59;;;;;;;19.58;14.60;;;12.00;79.60;;;;;;5034862;28;20115;-46
2021/12/24 06:22:26;;;;;;;21.13;14.57;;;11.90;79.50;;;;;;5038542;28;20033;-47
2021/12/24 06:24:53;;;;;;;20.67;13.90;;;11.90;79.50;;;;;;5040517;28;20069;-45
2021/12/24 06:27:20;;;;;;;25.77;14.82;;;11.90;79.50;;;;;;5031341;28;20095;-45
2021/12/24 06:29:47;;;;;;;22.13;14.23;;;11.90;79.50;;;;;;5029295;28;20091;-46
2021/12/24 06:32:14;;;;;;;24.65;14.23;;;11.90;79.50;;;;;;5039778;28;20038;-47
2021/12/24 06:34:40;;;;;;;22.83;13.70;;;11.90;79.60;;;;;;5042432;28;20461;-49
2021/12/24 06:37:10;;;;;;;21.15;13.02;;;11.90;79.50;;;;;;5050655;28;20262;-49
2021/12/24 06:39:37;;;;;;;21.02;13.15;;;11.90;79.50;;;;;;5038933;28;20042;-49
2021/12/24 06:42:05;;;;;;;17.38;12.57;;;11.90;79.40;;;;;;5033091;28;20654;-49
2021/12/24 06:44:32;;;;;;;21.48;13.73;;;12.00;79.40;;;;;;5039406;28;20037;-48
2021/12/24 06:46:59;;;;;;;19.17;14.02;;;12.00;79.50;;;;;;5031546;28;20119;-45
2021/12/24 06:49:28;;;;;;;21.90;13.90;;;12.00;79.50;;;;;;5027635;28;20037;-45
2021/12/24 06:51:57;;;;;;;23.08;14.27;;;11.90;79.40;;;;;;5039202;28;20630;-49
2021/12/24 06:54:24;;;;;;;24.30;14.13;;;11.90;79.40;;;;;;5043612;28;20053;-49
2021/12/24 06:56:52;;;;;;;23.23;14.73;;;11.90;79.40;;;;;;5033458;28;20099;-49
2021/12/24 06:59:19;;;;;;;22.52;13.82;;;11.90;79.40;;;;;;5012178;28;20825;-47
2021/12/24 07:01:47;;;;;;;17.83;13.20;;;11.90;79.40;;;;;;5006181;28;20586;-46
2021/12/24 07:04:14;;;;;;;22.40;13.65;;;11.90;79.40;;;;;;5039035;28;20064;-46
2021/12/24 07:06:45;;;;;;;21.20;12.93;;;11.90;79.50;;;;;;5029613;28;20043;-48
2021/12/24 07:09:14;;;;;;;23.75;14.80;;;11.90;79.50;;;;;;5026557;28;20042;-49
2021/12/24 07:11:41;;;;;;;23.20;14.40;;;12.00;79.50;;;;;;5037774;28;20099;-44
2021/12/24 07:14:08;;;;;;;20.27;12.90;;;11.90;79.40;;;;;;5039419;28;20839;-45
2021/12/24 07:16:36;;;;;;;21.60;13.13;;;11.90;79.40;;;;;;5043842;28;20491;-46
2021/12/24 07:19:03;;;;;;;22.77;14.13;;;11.90;79.50;;;;;;5033338;28;20065;-45
2021/12/24 07:21:35;;;;;;;24.08;13.68;;;11.90;80.10;;;;;;5037679;28;20558;-47
2021/12/24 07:24:03;;;;;;;19.48;13.57;;;11.90;79.40;;;;;;5040364;28;20056;-45
2021/12/24 07:26:30;;;;;;;27.02;12.57;;;11.90;79.40;;;;;;5027025;28;20044;-45
2021/12/24 07:28:56;;;;;;;19.73;13.25;;;11.90;79.40;;;;;;5035120;28;20029;-45
2021/12/24 07:31:23;;;;;;;22.67;12.73;;;11.90;79.50;;;;;;5041207;28;20029;-45
2021/12/24 07:33:50;;;;;;;21.70;12.88;;;11.90;79.50;;;;;;5048947;28;20049;-47
2021/12/24 07:36:17;;;;;;;19.15;12.93;;;11.90;79.40;;;;;;5036080;28;20557;-45
2021/12/24 07:38:43;;;;;;;24.92;13.10;;;11.90;79.40;;;;;;5040270;28;20049;-46
2021/12/24 07:41:10;;;;;;;25.35;13.73;;;11.90;80.00;;;;;;5024776;28;20108;-47
2021/12/24 07:43:37;;;;;;;23.10;14.10;;;11.90;79.40;;;;;;5036156;28;20131;-45
2021/12/24 07:46:04;;;;;;;29.60;14.60;;;12.00;79.50;;;;;;5040010;28;20071;-45
2021/12/24 07:48:35;;;;;;;24.85;13.65;;;11.90;79.50;;;;;;5049020;28;20041;-47
2021/12/24 07:53:28;;;;;;;22.00;13.35;;;11.90;79.50;;;;;;5002555;28;20080;-48
2021/12/24 07:55:56;;;;;;;26.27;15.13;;;11.90;79.40;;;;;;5019640;28;20050;-44
2021/12/24 07:58:26;;;;;;;32.55;15.05;;;11.90;79.40;;;;;;5014850;28;20087;-46
2021/12/24 08:00:53;;;;;;;27.23;16.30;;;11.90;79.40;;;;;;5025797;28;20049;-44
2021/12/24 08:03:24;;;;;;;25.10;14.15;;;11.90;79.50;;;;;;5017556;28;20048;-46
2021/12/24 08:05:51;;;;;;;25.65;14.45;;;11.90;79.40;;;;;;5022574;28;20040;-45
2021/12/24 08:08:17;;;;;;;22.98;13.77;;;11.90;79.40;;;;;;5014474;28;20091;-45
2021/12/24 08:10:44;;;;;;;23.88;14.13;;;11.90;79.40;;;;;;5039540;28;20037;-45
2021/12/24 08:13:11;;;;;;;24.25;14.68;;;11.90;79.40;;;;;;5001288;28;20113;-47
2021/12/24 08:15:38;;;;;;;24.63;15.05;;;11.90;79.40;;;;;;5030662;28;20508;-47
2021/12/24 08:18:09;;;;;;;26.02;15.52;;;11.90;79.40;;;;;;5019101;28;20088;-47
2021/12/24 08:20:36;;;;;;;25.38;14.65;;;11.90;79.30;;;;;;5028710;28;20033;-47
2021/12/24 08:23:02;;;;;;;27.90;16.58;;;11.90;79.40;;;;;;5014595;28;20704;-48
2021/12/24 08:25:29;;;;;;;23.50;14.30;;;11.90;79.40;;;;;;5031441;28;20099;-49
2021/12/24 08:27:56;;;;;;;21.15;12.85;;;11.90;79.50;;;;;;5015892;28;20057;-48
2021/12/24 08:30:23;;;;;;;18.90;13.07;;;11.90;79.40;;;;;;5013313;28;20088;-47
2021/12/24 08:32:50;;;;;;;25.27;14.77;;;12.00;79.50;;;;;;5013305;28;20471;-47
2021/12/24 08:35:21;;;;;;;19.35;13.43;;;12.00;79.40;;;;;;5038575;28;20079;-48
2021/12/24 08:37:48;;;;;;;22.70;14.23;;;12.00;79.40;;;;;;5016482;28;20111;-48
2021/12/24 08:40:16;;;;;;;21.27;13.05;;;12.00;79.40;;;;;;5030298;28;20042;-48
2021/12/24 08:42:45;;;;;;;22.50;13.68;;;12.00;79.30;;;;;;5026560;28;20452;-48
2021/12/24 08:45:12;;;;;;;22.83;14.50;;;12.00;79.20;;;;;;5023066;28;20052;-47
2021/12/24 08:47:40;;;;;;;25.13;13.10;;;12.00;79.20;;;;;;5015734;28;20530;-48
2021/12/24 08:50:10;;;;;;;22.67;13.40;;;12.00;79.20;;;;;;5033168;28;20100;-48
2021/12/24 08:52:43;;;;;;;23.15;13.07;;;12.00;79.20;;;;;;5021543;28;20050;-48
2021/12/24 08:55:10;;;;;;;20.80;12.45;;;12.00;79.20;;;;;;5032930;28;20049;-47
2021/12/24 08:57:39;;;;;;;21.85;12.93;;;12.00;79.20;;;;;;5018464;28;20038;-48
2021/12/24 09:00:09;;;;;;;21.85;13.05;;;12.00;79.20;;;;;;5009667;28;20069;-48
2021/12/24 09:02:37;;;;;;;24.05;12.63;;;12.00;79.20;;;;;;5029757;28;20037;-47
2021/12/24 09:05:06;;;;;;;22.75;13.00;;;12.00;79.10;;;;;;5028059;28;20061;-47
2021/12/24 09:07:33;;;;;;;21.45;13.00;;;12.00;79.10;;;;;;5019607;28;20033;-47
2021/12/24 09:10:00;;;;;;;18.20;11.50;;;12.10;79.00;;;;;;5025934;28;20052;-48
2021/12/24 09:12:26;;;;;;;21.83;12.65;;;12.10;79.70;;;;;;5028596;28;20457;-47
2021/12/24 09:14:53;;;;;;;15.48;11.18;;;12.10;78.90;;;;;;5039430;28;20492;-49
2021/12/24 09:17:21;;;;;;;24.95;11.27;;;12.10;78.90;;;;;;5018726;28;20045;-51
2021/12/24 09:19:50;;;;;;;21.65;11.65;;;12.10;78.80;;;;;;5029826;28;20408;-47
2021/12/24 09:22:18;;;;;;;21.23;12.00;;;12.10;78.70;;;;;;5032387;28;20081;-48
2021/12/24 09:24:50;;;;;;;18.80;11.45;;;12.10;78.70;;;;;;5022553;28;20038;-49
2021/12/24 09:27:17;;;;;;;16.95;11.70;;;12.10;78.60;;;;;;5017192;28;20046;-48
2021/12/24 09:29:44;;;;;;;21.80;12.52;;;12.10;78.60;;;;;;5030753;28;20029;-47
2021/12/24 09:32:11;;;;;;;19.58;11.25;;;12.10;78.60;;;;;;5035917;28;20100;-48
2021/12/24 09:34:38;;;;;;;19.67;11.35;;;12.20;78.60;;;;;;5016480;28;20096;-47
2021/12/24 09:37:07;;;;;;;24.23;12.65;;;12.30;78.60;;;;;;5017686;28;20500;-50
2021/12/24 09:39:34;;;;;;;21.65;10.88;;;12.20;78.60;;;;;;5037464;28;20673;-47
2021/12/24 09:42:02;;;;;;;20.45;11.75;;;12.30;79.30;;;;;;5030781;28;20747;-47
2021/12/24 09:44:29;;;;;;;20.50;10.98;;;12.20;78.50;;;;;;5013612;28;20046;-49
2021/12/24 09:46:56;;;;;;;18.83;10.85;;;12.30;78.40;;;;;;5013322;28;20632;-52
2021/12/24 09:49:24;;;;;;;19.58;11.18;;;12.30;78.20;;;;;;5036185;28;20040;-48
2021/12/24 09:51:52;;;;;;;19.65;10.77;;;12.30;78.10;;;;;;5031190;28;20202;-52
2021/12/24 09:54:21;;;;;;;21.02;11.57;;;12.30;78.00;;;;;;5015344;28;20046;-52
2021/12/24 09:56:50;;;;;;;19.58;10.65;;;12.30;77.90;;;;;;5014904;28;20099;-52
2021/12/24 09:59:18;;;;;;;18.05;10.18;;;12.40;77.80;;;;;;5036992;28;20041;-51
2021/12/24 10:01:58;;;;;;;19.15;11.32;;;12.40;77.70;;;;;;5028888;28;20068;-53
2021/12/24 10:04:34;;;;;;;18.15;10.13;;;12.40;77.50;;;;;;5015125;28;20054;-51
2021/12/24 10:07:05;;;;;;;17.02;10.35;;;12.40;77.60;;;;;;5014001;28;20426;-49
2021/12/24 10:09:42;;;;;;;20.02;10.55;;;12.40;77.70;;;;;;5033823;28;20033;-51
2021/12/24 10:12:16;;;;;;;17.23;10.27;;;12.40;77.60;;;;;;5025049;28;20073;-51
2021/12/24 10:14:49;;;;;;;18.25;10.75;;;12.40;77.70;;;;;;5021271;28;20112;-51
2021/12/24 10:17:22;;;;;;;17.80;12.00;;;12.40;77.50;;;;;;5022400;28;20053;-52
2021/12/24 10:19:53;;;;;;;19.13;11.45;;;12.40;77.50;;;;;;5033777;28;20057;-52
2021/12/24 10:22:45;;;;;;;20.52;12.63;;;12.40;77.40;;;;;;5017005;28;20037;-52
2021/12/24 10:25:13;;;;;;;24.50;12.35;;;12.40;77.30;;;;;;5023359;28;20049;-49
2021/12/24 10:27:42;;;;;;;20.17;11.00;;;12.50;77.30;;;;;;5018021;28;20046;-52
2021/12/24 10:30:18;;;;;;;15.40;11.15;;;12.40;77.20;;;;;;5022712;28;20113;-51
2021/12/24 10:32:45;;;;;;;19.10;10.70;;;12.40;77.10;;;;;;5028495;28;20037;-48
2021/12/24 10:35:21;;;;;;;19.05;11.32;;;12.40;77.20;;;;;;5038933;28;20104;-51
2021/12/24 10:38:08;;;;;;;17.08;11.05;;;12.50;77.40;;;;;;5018692;28;20042;-48
2021/12/24 10:40:35;;;;;;;17.40;11.13;;;12.50;77.50;;;;;;5016769;28;20571;-51
2021/12/24 10:43:04;;;;;;;14.23;10.93;;;12.50;77.60;;;;;;5016037;28;20038;-49
2021/12/24 10:45:32;;;;;;;20.10;11.23;;;12.60;77.70;;;;;;5030206;28;20029;-51
2021/12/24 10:48:16;;;;;;;19.77;11.63;;;12.60;77.90;;;;;;5020558;28;20048;-46
2021/12/24 10:51:04;;;;;;;20.50;12.23;;;12.70;77.60;;;;;;5021486;28;20049;-50
2021/12/24 10:53:34;;;;;;;18.25;12.27;;;12.80;77.90;;;;;;5013432;28;20049;-51
2021/12/24 10:56:01;;;;;;;17.30;11.15;;;12.90;77.60;;;;;;5033375;28;20135;-49
2021/12/24 10:58:29;;;;;;;20.00;12.57;;;13.00;77.20;;;;;;5016962;28;20099;-50
2021/12/24 11:01:01;;;;;;;20.77;12.45;;;13.00;76.80;;;;;;5013215;28;20054;-48
2021/12/24 11:03:32;;;;;;;21.98;11.32;;;13.00;76.20;;;;;;5009086;28;20110;-50
2021/12/24 11:06:07;;;;;;;23.38;11.40;;;13.00;76.00;;;;;;4997151;28;20041;-52
2021/12/24 11:08:35;;;;;;;20.92;12.30;;;13.10;75.80;;;;;;5018889;28;20424;-51
2021/12/24 11:11:06;;;;;;;17.10;11.00;;;13.10;75.70;;;;;;5028793;28;20488;-50
2021/12/24 11:13:40;;;;;;;18.42;10.98;;;13.10;75.50;;;;;;5023046;28;20113;-50
2021/12/24 11:16:10;;;;;;;15.50;11.00;;;13.00;75.40;;;;;;5029523;28;20038;-53
2021/12/24 11:18:41;;;;;;;22.15;11.90;;;13.00;75.40;;;;;;5016150;28;20045;-49
2021/12/24 11:21:11;;;;;;;19.30;11.50;;;13.00;75.30;;;;;;5020286;28;20041;-51
2021/12/24 11:23:41;;;;;;;17.75;10.93;;;13.00;75.30;;;;;;5007266;28;20041;-47
2021/12/24 11:26:09;;;;;;;17.17;11.65;;;13.00;75.10;;;;;;5031050;28;20099;-51
2021/12/24 11:28:38;;;;;;;21.25;11.95;;;13.00;75.20;;;;;;5002383;28;20044;-48
2021/12/24 11:31:14;;;;;;;17.65;11.77;;;12.90;75.10;;;;;;5017651;28;20517;-49
2021/12/24 11:33:43;;;;;;;17.92;11.65;;;12.90;74.90;;;;;;5024886;28;20056;-48
2021/12/24 11:36:12;;;;;;;19.70;11.95;;;12.90;75.20;;;;;;5029185;28;20045;-51
2021/12/24 11:38:42;;;;;;;17.05;11.02;;;12.90;75.20;;;;;;5015489;22;20079;-77
2021/12/24 11:41:12;;;;;;;14.90;11.25;;;12.80;75.20;;;;;;5005831;28;20056;-76
2021/12/24 11:43:41;;;;;;;17.60;11.57;;;12.80;75.30;;;;;;4979266;28;20064;-75
2021/12/24 11:46:11;;;;;;;16.30;11.30;;;12.80;75.40;;;;;;5000986;28;20045;-76
2021/12/24 11:48:38;;;;;;;18.10;10.63;;;12.80;75.40;;;;;;5002660;28;20049;-74
2021/12/24 11:51:14;;;;;;;17.63;11.15;;;12.80;75.50;;;;;;4986048;28;20436;-74
2021/12/24 11:53:41;;;;;;;15.20;10.07;;;12.80;75.30;;;;;;5005294;28;20048;-73
2021/12/24 11:56:10;;;;;;;19.70;11.18;;;12.90;75.50;;;;;;4987440;28;20417;-73
2021/12/24 11:58:52;;;;;;;19.88;13.00;;;12.80;75.20;;;;;;4979059;28;20056;-74
2021/12/24 12:01:21;;;;;;;16.33;11.00;;;12.90;75.20;;;;;;4996497;28;20409;-74
2021/12/24 12:03:53;;;;;;;16.63;10.98;;;12.90;75.20;;;;;;4998753;28;20042;-77
2021/12/24 12:06:23;;;;;;;18.85;10.90;;;12.90;75.00;;;;;;4999697;28;20042;-77
2021/12/24 12:08:52;;;;;;;19.52;11.38;;;12.90;75.00;;;;;;4979854;28;20045;-74
2021/12/24 12:11:24;;;;;;;15.93;10.35;;;12.90;75.10;;;;;;5014669;28;20048;-74
2021/12/24 12:14:03;;;;;;;18.58;10.82;;;12.90;74.90;;;;;;4992198;28;20042;-76
2021/12/24 12:16:51;;;;;;;20.48;11.73;;;12.90;74.70;;;;;;4987685;28;20048;-74
2021/12/24 12:22:47;;;;;;;19.15;10.20;;;12.90;75.10;;;;;;4979785;28;20058;-73
2021/12/24 12:25:31;;;;;;;15.25;10.45;;;12.90;74.90;;;;;;4997943;28;20065;-74
2021/12/24 12:28:00;;;;;;;16.50;8.98;;;13.00;75.10;;;;;;4978862;28;20038;-75
2021/12/24 12:30:39;;;;;;;14.30;9.13;;;13.00;75.20;;;;;;5014629;28;20041;-74
2021/12/24 12:33:15;;;;;;;13.35;8.98;;;13.10;75.20;;;;;;4993873;28;20124;-74
2021/12/24 12:35:56;;;;;;;17.42;9.38;;;13.20;74.80;;;;;;4987055;28;20034;-75
2021/12/24 12:38:24;;;;;;;18.85;8.68;;;13.10;74.40;;;;;;4987581;28;20037;-74
2021/12/24 12:40:51;;;;;;;15.20;9.32;;;13.20;74.70;;;;;;5001549;28;20048;-75
2021/12/24 12:43:20;;;;;;;17.40;9.85;;;13.20;74.60;;;;;;4999483;28;20035;-75
2021/12/24 12:45:48;;;;;;;15.77;9.38;;;13.20;74.40;;;;;;5003055;28;20493;-76
2021/12/24 12:48:23;;;;;;;19.25;9.55;;;13.20;74.10;;;;;;4986825;28;20047;-77
2021/12/24 12:51:00;;;;;;;16.20;9.45;;;13.20;73.90;;;;;;4988661;28;20041;-74
2021/12/24 12:53:35;;;;;;;15.02;9.32;;;13.20;73.60;;;;;;5001173;28;20034;-73
2021/12/24 12:56:30;;;;;;;16.05;9.93;;;13.20;73.80;;;;;;4969401;28;20064;-74
2021/12/24 12:59:02;;;;;;;13.68;9.65;;;13.20;73.60;;;;;;4966591;28;20497;-74
2021/12/24 13:01:30;;;;;;;15.63;10.27;;;13.20;73.80;;;;;;4990553;28;20054;-77
2021/12/24 13:04:00;;;;;;;13.15;9.43;;;13.20;73.80;;;;;;4977949;28;20044;-78
2021/12/24 13:06:36;;;;;;;16.42;11.07;;;13.20;73.70;;;;;;4996379;28;20081;-77
2021/12/24 13:09:06;;;;;;;12.88;9.88;;;13.20;73.60;;;;;;5006015;28;20045;-75
2021/12/24 13:11:38;;;;;;;18.05;11.48;;;13.10;73.70;;;;;;4991942;28;20061;-77
2021/12/24 13:14:05;;;;;;;17.60;10.77;;;13.10;73.70;;;;;;4985304;28;20041;-75
2021/12/24 13:16:39;;;;;;;18.67;11.60;;;13.10;73.70;;;;;;4985497;28;20112;-76
2021/12/24 13:24:17;;;;;;;21.13;10.85;;;13.10;73.80;;;;;;5005522;28;20061;-73
2021/12/24 13:26:48;;;;;;;15.00;10.45;;;13.10;74.00;;;;;;5003019;28;20049;-77
2021/12/24 13:29:17;;;;;;;20.55;10.60;;;13.10;74.00;;;;;;5003892;28;20054;-73
2021/12/24 13:31:56;;;;;;;19.10;10.75;;;13.10;73.90;;;;;;4982782;28;20041;-77
2021/12/24 13:34:24;;;;;;;18.98;10.23;;;13.10;73.80;;;;;;4991879;28;20132;-74
2021/12/24 13:36:52;;;;;;;19.60;11.15;;;13.00;73.80;;;;;;4981336;28;20042;-73
2021/12/24 13:39:22;;;;;;;17.63;10.50;;;13.10;73.90;;;;;;4994135;28;20488;-74
2021/12/24 13:42:00;;;;;;;16.20;10.18;;;13.00;73.80;;;;;;5001281;28;20046;-74
2021/12/24 13:44:30;;;;;;;17.35;9.77;;;13.00;73.60;;;;;;4996969;28;20052;-74
2021/12/24 13:47:24;;;;;;;17.05;10.00;;;13.00;73.80;;;;;;4984505;28;20046;-74
2021/12/24 13:55:29;;;;;;;18.70;9.75;;;12.90;73.70;;;;;;5012868;28;20505;-75
2021/12/24 13:57:58;;;;;;;18.92;9.80;;;12.90;73.80;;;;;;4982952;28;20045;-77
2021/12/24 14:00:26;;;;;;;23.42;10.10;;;12.80;73.80;;;;;;5009297;28;20046;-73
2021/12/24 14:02:58;;;;;;;17.70;9.85;;;12.80;73.80;;;;;;4986827;28;20112;-74
2021/12/24 14:05:27;;;;;;;17.17;9.02;;;12.80;73.80;;;;;;4988218;28;20042;-73
2021/12/24 14:08:10;;;;;;;17.77;9.50;;;12.80;73.80;;;;;;4962330;28;20042;-74
2021/12/24 14:10:38;;;;;;;12.88;9.18;;;12.80;73.70;;;;;;4993295;28;20057;-76
2021/12/24 14:13:12;;;;;;;16.17;9.93;;;12.80;73.90;;;;;;4982084;28;20046;-73
2021/12/24 14:15:55;;;;;;;14.80;9.65;;;12.70;74.00;;;;;;4997528;28;20505;-77
2021/12/24 14:19:12;;;;;;;17.13;9.05;;;12.70;74.10;;;;;;4989085;28;20041;-74
2021/12/24 14:24:20;;;;;;;14.02;9.25;;;12.70;74.10;;;;;;4983883;28;20052;-75
2021/12/24 14:26:52;;;;;;;17.20;9.13;;;12.70;74.20;;;;;;5000899;28;20405;-75
2021/12/24 14:29:31;;;;;;;15.70;9.60;;;12.70;74.20;;;;;;5001308;28;20034;-74
2021/12/24 14:32:16;;;;;;;19.45;9.75;;;12.70;74.30;;;;;;5007135;28;20046;-74
2021/12/24 14:34:53;;;;;;;17.92;9.68;;;12.70;74.40;;;;;;4988708;28;20437;-73
2021/12/24 14:37:23;;;;;;;17.77;9.25;;;12.60;74.80;;;;;;4995495;28;20615;-73
2021/12/24 14:40:09;;;;;;;15.48;9.77;;;12.70;74.20;;;;;;4993525;28;20038;-73